Airfield :
LOGIN :

Register | Disclaimer

   EN    FR    IT 

 










Legend :    VFR   Marginal VFR   IFR   Intensive IFR   Very Intensive IFR
Visi :
Ceiling :
>= 8 km
>= 3000ft
5 to 8 km
1000 to 3000 ft
1500m to 5 km
500 to 1000 ft
800 to 1500m
200 to 500 ft
< 800m
< 200 ft
Symbols :   Thunderstorms  Fog  Heavy snow  Heavy precipitations  Wind > 20 kt
SIGMETs :     Misc.  Thunderstorms  Icing  Turbulence  Mountain Waves  Volcanic Ashes






- Airport Elevation : 935 ft


EBFS - Florennes

CURRENT METAR :
  • 210625Z VRB01KT 6000 SKC M03/M03 Q1041 WHT WHT TEMPO YLO

EXPIRED METARs :
  • 210555Z VRB01KT 5000 BR SKC M03/M03 Q1041 WHT WHT TEMPO YLO
  • 210545Z AUTO VRB01KT 4800 BKN210/// M03/M03 Q1041 GRN
  • 210525Z AUTO VRB01KT 5000 BKN210/// M03/M03 Q1041 WHT
  • 210510Z AUTO VRB02KT 4900 BKN210/// M03/M03 Q1042 GRN
  • 210455Z AUTO VRB01KT 6000 OVC210/// M03/M03 Q1041 WHT
  • 210443Z AUTO VRB01KT 5000 OVC210/// M03/M03 Q1042 WHT
  • 210425Z AUTO VRB01KT 4500 BR BKN210/// M03/M03 Q1042 GRN
  • 210417Z AUTO VRB01KT 3600 BR OVC210/// M03/M03 Q1042 YLO
  • 210405Z AUTO 02003KT 1500 BR OVC210/// M03/M04 Q1042 AMB
  • 210353Z AUTO VRB01KT 7000 OVC210/// M02/M02 Q1042 WHT

TAF TAF EBFS
Valid from the 21 at 07:00 until the 21 at 16:00 UTC


210541Z 2107/2116 VRB02KT 5000 BR SKC
TEMPO 2107/2109 3000 BR/MIFG SCT003
BECMG 2109/2111 03005KT 9999 FEW300



MET'MAP, your aeronautical weather chart ! - Copyright ORBIFLY December 2007 - Disclaimer

ORBIFLY MET'MAP TEAM :

Programming & Development : Alexandra Zaïnal
Concept & original design : Baudouin d'Aumeries
Assistance for programming : Marc-Olivier Méhu
Technical & hardware support : Manuel Goepfert

Contact : metmap@orbifly.com




SOURCES & CREDITS :

   NOAA